Latest Weather Observations for St Kilda Harbour RMYS

IDV60801

Issued at 3:02 pm EST Monday 6 July 2015 (issued every 30 minutes, with the page automatically refreshed every 10 minutes)

About weather observations | Map of weather stations | Latest weather observations for VIC | Other Formats
Station Details ID: 086220 Name: ST KILDA HARBOUR - RMYS Lat: -37.86 Lon: 144.96 Height: 6.4 m
Data from the previous 72 hours. | See also: Recent months for locations in Victoria
Date/Time
EST
Temp
°C
App
Temp
°C
Dew
Point
Rel
Hum
%
Delta-T
°C
Wind Press
QNH
hPa
Press
MSL
hPa
Rain
since 9 am
mm
Dir
 
Spd
km/h
Gust
km/h
Spd
kts
Gust
kts
06/03:00pm - - - - - N 28 43 15 23 - - -
06/02:30pm - - - - - N 30 44 16 24 - - -
06/02:00pm - - - - - N 30 43 16 23 - - -
06/01:30pm - - - - - N 24 39 13 21 - - -
06/01:00pm - - - - - N 28 39 15 21 - - -
06/12:30pm - - - - - N 24 33 13 18 - - -
06/12:00pm - - - - - N 32 50 17 27 - - -
06/11:34am - - - - - N 30 50 16 27 - - -
06/11:30am - - - - - N 32 46 17 25 - - -
06/11:00am - - - - - N 28 39 15 21 - - -
06/10:30am - - - - - N 26 39 14 21 - - -
06/10:00am - - - - - N 30 44 16 24 - - -
06/09:42am - - - - - NNE 28 46 15 25 - - -
06/09:30am - - - - - N 28 43 15 23 - - -
06/09:00am - - - - - N 24 37 13 20 - - -
06/08:30am - - - - - NNE 26 39 14 21 - - -
06/08:00am - - - - - NNE 28 39 15 21 - - -
06/07:30am - - - - - NNE 26 41 14 22 - - -
06/07:00am - - - - - NNE 26 35 14 19 - - -
06/06:30am - - - - - NNE 26 35 14 19 - - -
06/06:00am - - - - - N 19 28 10 15 - - -
06/05:30am - - - - - N 22 33 12 18 - - -
06/05:00am - - - - - NNE 26 37 14 20 - - -
06/04:30am - - - - - NNE 24 37 13 20 - - -
06/04:00am - - - - - NNE 24 33 13 18 - - -
06/03:30am - - - - - N 26 39 14 21 - - -
06/03:00am - - - - - NNE 26 41 14 22 - - -
06/02:30am - - - - - NNE 24 39 13 21 - - -
06/02:00am - - - - - NNE 28 41 15 22 - - -
06/01:30am - - - - - NNE 24 35 13 19 - - -
06/01:00am - - - - - NNE 26 37 14 20 - - -
06/12:30am - - - - - NNE 28 43 15 23 - - -
06/12:00am - - - - - N 30 44 16 24 - - -
 
Date/Time
EST
Temp
°C
App
Temp
°C
Dew
Point
Rel
Hum
%
Delta-T
°C
Wind Press
QNH
hPa
Press
MSL
hPa
Rain
since 9 am
mm
Dir
 
Spd
km/h
Gust
km/h
Spd
kts
Gust
kts
05/11:30pm - - - - - NNE 28 44 15 24 - - -
05/11:00pm - - - - - NNE 22 33 12 18 - - -
05/10:30pm - - - - - N 24 35 13 19 - - -
05/10:10pm - - - - - N 28 46 15 25 - - -
05/10:00pm - - - - - N 24 35 13 19 - - -
05/09:30pm - - - - - N 24 33 13 18 - - -
05/09:00pm - - - - - N 24 35 13 19 - - -
05/08:30pm - - - - - N 24 37 13 20 - - -
05/08:00pm - - - - - N 22 35 12 19 - - -
05/07:30pm - - - - - N 20 30 11 16 - - -
05/07:00pm - - - - - NNE 20 32 11 17 - - -
05/06:30pm - - - - - NNE 20 30 11 16 - - -
05/06:00pm - - - - - N 17 24 9 13 - - -
05/05:30pm - - - - - N 19 30 10 16 - - -
05/05:00pm - - - - - N 22 32 12 17 - - -
05/04:30pm - - - - - N 20 30 11 16 - - -
05/04:00pm - - - - - NNE 20 28 11 15 - - -
05/03:30pm - - - - - NNE 22 35 12 19 - - -
05/03:00pm - - - - - N 24 32 13 17 - - -
05/02:30pm - - - - - NNE 22 33 12 18 - - -
05/02:00pm - - - - - N 24 39 13 21 - - -
05/01:30pm - - - - - N 24 32 13 17 - - -
05/01:00pm - - - - - N 19 30 10 16 - - -
05/12:30pm - - - - - N 22 30 12 16 - - -
05/12:00pm - - - - - N 19 26 10 14 - - -
05/11:30am - - - - - NNE 17 28 9 15 - - -
05/11:00am - - - - - N 19 28 10 15 - - -
05/10:30am - - - - - NNE 20 32 11 17 - - -
05/10:00am - - - - - NNE 19 30 10 16 - - -
05/09:30am - - - - - NNE 20 33 11 18 - - -
05/09:00am - - - - - NNE 20 32 11 17 - - -
05/08:30am - - - - - NNE 19 26 10 14 - - -
05/08:00am - - - - - NNE 17 26 9 14 - - -
05/07:30am - - - - - NNE 15 20 8 11 - - -
05/07:00am - - - - - NNE 9 17 5 9 - - -
05/06:30am - - - - - N 11 19 6 10 - - -
05/06:00am - - - - - N 17 26 9 14 - - -
05/05:30am - - - - - N 20 28 11 15 - - -
05/05:00am - - - - - N 22 32 12 17 - - -
05/04:30am - - - - - N 20 32 11 17 - - -
05/04:00am - - - - - N 19 30 10 16 - - -
05/03:30am - - - - - N 19 28 10 15 - - -
05/03:00am - - - - - N 22 30 12 16 - - -
05/02:30am - - - - - NNE 20 28 11 15 - - -
05/02:00am - - - - - NNE 20 30 11 16 - - -
05/01:30am - - - - - NNE 19 26 10 14 - - -
05/01:00am - - - - - N 17 22 9 12 - - -
05/12:30am - - - - - NNE 20 28 11 15 - - -
05/12:00am - - - - - NNE 17 26 9 14 - - -
 
Date/Time
EST
Temp
°C
App
Temp
°C
Dew
Point
Rel
Hum
%
Delta-T
°C
Wind Press
QNH
hPa
Press
MSL
hPa
Rain
since 9 am
mm
Dir
 
Spd
km/h
Gust
km/h
Spd
kts
Gust
kts
04/11:30pm - - - - - NNE 19 28 10 15 - - -
04/11:00pm - - - - - N 20 28 11 15 - - -
04/10:30pm - - - - - N 19 24 10 13 - - -
04/10:00pm - - - - - NNE 17 26 9 14 - - -
04/09:30pm - - - - - NNE 17 24 9 13 - - -
04/09:00pm - - - - - NNE 17 22 9 12 - - -
04/08:30pm - - - - - NNE 15 26 8 14 - - -
04/08:00pm - - - - - NNE 15 20 8 11 - - -
04/07:30pm - - - - - NNE 17 24 9 13 - - -
04/07:00pm - - - - - NNE 15 20 8 11 - - -
04/06:30pm - - - - - NNE 17 22 9 12 - - -
04/06:00pm - - - - - NNE 15 20 8 11 - - -
04/05:30pm - - - - - NNE 17 24 9 13 - - -
04/05:00pm - - - - - NNE 17 24 9 13 - - -
04/04:30pm - - - - - NNE 17 22 9 12 - - -
04/04:00pm - - - - - NNE 19 26 10 14 - - -
04/03:30pm - - - - - NNE 17 26 9 14 - - -
04/03:00pm - - - - - NNE 20 28 11 15 - - -
04/02:30pm - - - - - NNE 19 32 10 17 - - -
04/02:00pm - - - - - NNE 19 26 10 14 - - -
04/01:30pm - - - - - NNE 22 32 12 17 - - -
04/01:00pm - - - - - NNE 20 30 11 16 - - -
04/12:30pm - - - - - NNE 20 30 11 16 - - -
04/12:00pm - - - - - NNE 19 24 10 13 - - -
04/11:30am - - - - - NNE 19 24 10 13 - - -
04/11:00am - - - - - NNE 17 24 9 13 - - -
04/10:30am - - - - - NNE 17 22 9 12 - - -
04/10:00am - - - - - NNE 13 19 7 10 - - -
04/09:30am - - - - - NNE 13 19 7 10 - - -
04/09:00am - - - - - N 15 26 8 14 - - -
04/08:30am - - - - - NNE 19 26 10 14 - - -
04/08:00am - - - - - NNE 15 20 8 11 - - -
04/07:30am - - - - - N 15 20 8 11 - - -
04/07:00am - - - - - N 13 20 7 11 - - -
04/06:30am - - - - - N 17 26 9 14 - - -
04/06:00am - - - - - N 17 30 9 16 - - -
04/05:30am - - - - - N 17 26 9 14 - - -
04/05:00am - - - - - NNE 13 22 7 12 - - -
04/04:30am - - - - - NNE 11 17 6 9 - - -
04/04:00am - - - - - N 15 20 8 11 - - -
04/03:30am - - - - - N 13 22 7 12 - - -
04/03:00am - - - - - N 19 24 10 13 - - -
04/02:30am - - - - - N 17 20 9 11 - - -
04/02:00am - - - - - NNW 17 20 9 11 - - -
04/01:30am - - - - - NNW 19 22 10 12 - - -
04/01:00am - - - - - NNW 19 24 10 13 - - -
04/12:30am - - - - - NNW 22 28 12 15 - - -
04/12:00am - - - - - NNW 22 28 12 15 - - -
 
Date/Time
EST
Temp
°C
App
Temp
°C
Dew
Point
Rel
Hum
%
Delta-T
°C
Wind Press
QNH
hPa
Press
MSL
hPa
Rain
since 9 am
mm
Dir
 
Spd
km/h
Gust
km/h
Spd
kts
Gust
kts
03/11:30pm - - - - - NNW 19 24 10 13 - - -
03/11:00pm - - - - - NNW 19 24 10 13 - - -
03/10:30pm - - - - - NNW 17 20 9 11 - - -
03/10:00pm - - - - - N 15 20 8 11 - - -
03/09:30pm - - - - - NNW 15 19 8 10 - - -
03/09:00pm - - - - - NW 13 15 7 8 - - -
03/08:30pm - - - - - NW 11 13 6 7 - - -
03/08:00pm - - - - - WNW 13 15 7 8 - - -
03/07:30pm - - - - - WNW 13 17 7 9 - - -
03/07:00pm - - - - - WNW 15 19 8 10 - - -
03/06:30pm - - - - - WNW 13 17 7 9 - - -
03/06:00pm - - - - - W 11 15 6 8 - - -
03/05:30pm - - - - - W 17 20 9 11 - - -
03/05:00pm - - - - - W 19 24 10 13 - - -
03/04:30pm - - - - - W 22 28 12 15 - - -
03/04:00pm - - - - - WSW 24 30 13 16 - - -
03/03:30pm - - - - - W 20 24 11 13 - - -

Other Formats:

Comma delimited format used in spreadsheet applications
http://www.bom.gov.au/fwo/IDV60801/IDV60801.95864.axf

JavaScript Object Notation format (JSON) in row-major order
http://www.bom.gov.au/fwo/IDV60801/IDV60801.95864.json